Time;durP1;ratioP1;P1;durP2;ratioP2;P2;SDS_P1;SDS_P2;PMS_P1;PMS_P2;Temp;Humidity;BMP_temperature;BMP_pressure;BME280_temperature;BME280_humidity;BME280_pressure;Samples;Min_cycle;Max_cycle;Signal;HPM_P1;HPM_P2
2022/10/31 00:01:55;;;;;;;12.45;5.30;;;;;;;;;;4919675;29;20064;-78
2022/10/31 00:04:22;;;;;;;23.55;6.05;;;;;;;;;;4901703;29;20045;-78
2022/10/31 00:06:50;;;;;;;15.13;5.57;;;;;;;;;;4911570;29;20117;-78
2022/10/31 00:09:24;;;;;;;28.27;5.47;;;;;;;;;;4891021;29;20510;-78
2022/10/31 00:11:54;;;;;;;18.77;5.95;;;;;;;;;;4888565;29;20102;-79
2022/10/31 00:14:21;;;;;;;14.48;5.55;;;;;;;;;;4906793;29;20037;-78
2022/10/31 00:16:49;;;;;;;5.35;4.85;;;;;;;;;;4893390;29;20074;-77
2022/10/31 00:19:17;;;;;;;24.52;5.25;;;;;;;;;;4894495;29;20064;-78
2022/10/31 00:21:44;;;;;;;20.23;5.50;;;;;;;;;;4883928;29;20048;-78
2022/10/31 00:24:11;;;;;;;27.88;7.00;;;;;;;;;;4899482;29;20041;-78
2022/10/31 00:26:39;;;;;;;29.40;6.43;;;;;;;;;;4897386;29;20536;-78
2022/10/31 00:29:06;;;;;;;20.58;5.30;;;;;;;;;;4898242;29;20116;-78
2022/10/31 00:31:33;;;;;;;10.23;5.18;;;;;;;;;;4882813;29;20048;-78
2022/10/31 00:34:02;;;;;;;16.10;5.03;;;;;;;;;;4883647;29;20497;-78
2022/10/31 00:36:30;;;;;;;20.25;4.63;;;;;;;;;;4884164;29;20099;-78
2022/10/31 00:38:58;;;;;;;16.42;4.47;;;;;;;;;;4884938;29;20100;-78
2022/10/31 00:41:26;;;;;;;20.55;4.68;;;;;;;;;;4898399;29;20056;-78
2022/10/31 00:43:53;;;;;;;20.80;5.47;;;;;;;;;;4894686;29;20049;-78
2022/10/31 00:46:20;;;;;;;12.23;4.55;;;;;;;;;;4893676;29;20045;-78
2022/10/31 00:48:50;;;;;;;18.50;4.25;;;;;;;;;;4882647;29;20053;-78
2022/10/31 00:51:17;;;;;;;8.32;4.07;;;;;;;;;;4895990;29;20096;-78
2022/10/31 00:53:44;;;;;;;28.00;4.57;;;;;;;;;;4893537;29;20052;-77
2022/10/31 00:56:12;;;;;;;13.02;5.20;;;;;;;;;;4878758;29;20501;-78
2022/10/31 00:58:39;;;;;;;27.35;4.85;;;;;;;;;;4881442;29;20048;-78
2022/10/31 01:01:08;;;;;;;31.52;5.32;;;;;;;;;;4881905;29;20509;-78
2022/10/31 01:03:38;;;;;;;11.40;4.40;;;;;;;;;;4894563;29;20104;-78
2022/10/31 01:06:11;;;;;;;16.02;4.35;;;;;;;;;;4877939;29;20048;-78
2022/10/31 01:08:38;;;;;;;11.35;3.90;;;;;;;;;;4878413;29;20076;-78
2022/10/31 01:11:05;;;;;;;10.85;4.35;;;;;;;;;;4879204;29;20048;-78
2022/10/31 01:13:33;;;;;;;11.82;3.78;;;;;;;;;;4889689;29;20203;-78
2022/10/31 01:16:01;;;;;;;15.38;4.32;;;;;;;;;;4892559;29;20100;-78
2022/10/31 01:18:29;;;;;;;9.43;3.22;;;;;;;;;;4893669;29;20052;-78
2022/10/31 01:21:08;;;;;;;12.98;3.90;;;;;;;;;;4890399;29;20045;-78
2022/10/31 01:23:35;;;;;;;7.88;3.70;;;;;;;;;;4880728;29;20628;-78
2022/10/31 01:26:12;;;;;;;4.20;3.67;;;;;;;;;;4861088;29;20045;-78
2022/10/31 01:28:43;;;;;;;7.18;3.63;;;;;;;;;;4883599;29;20052;-78
2022/10/31 01:31:11;;;;;;;4.38;3.90;;;;;;;;;;4901018;29;20060;-78
2022/10/31 01:33:39;;;;;;;14.30;4.18;;;;;;;;;;4873209;29;20044;-78
2022/10/31 01:36:12;;;;;;;17.92;4.50;;;;;;;;;;4887328;29;20136;-77
2022/10/31 01:38:40;;;;;;;7.30;4.20;;;;;;;;;;4888843;29;20078;-78
2022/10/31 01:41:07;;;;;;;6.72;4.68;;;;;;;;;;4900494;29;20041;-78
2022/10/31 01:43:49;;;;;;;9.27;5.20;;;;;;;;;;4889485;29;20037;-78
2022/10/31 01:46:18;;;;;;;14.20;5.03;;;;;;;;;;4870566;29;20049;-79
2022/10/31 01:48:46;;;;;;;12.40;4.55;;;;;;;;;;4868053;29;20068;-79
2022/10/31 01:51:14;;;;;;;15.80;4.72;;;;;;;;;;4866878;29;20387;-78
2022/10/31 01:53:43;;;;;;;8.25;5.05;;;;;;;;;;4874390;29;20049;-79
2022/10/31 01:56:12;;;;;;;13.23;5.20;;;;;;;;;;4858965;29;20529;-79
2022/10/31 01:58:40;;;;;;;9.45;4.38;;;;;;;;;;4870436;29;20073;-79
2022/10/31 02:01:07;;;;;;;7.40;4.20;;;;;;;;;;4870333;29;20055;-79
2022/10/31 02:03:35;;;;;;;9.93;3.83;;;;;;;;;;4892293;29;20462;-79
2022/10/31 02:06:03;;;;;;;9.00;3.92;;;;;;;;;;4894701;29;20044;-79
2022/10/31 02:08:33;;;;;;;10.98;3.88;;;;;;;;;;4899371;29;20048;-79
2022/10/31 02:11:03;;;;;;;8.63;4.53;;;;;;;;;;4900563;29;20064;-79
2022/10/31 02:13:30;;;;;;;9.80;4.10;;;;;;;;;;4881684;29;20057;-79
2022/10/31 02:15:59;;;;;;;13.98;4.32;;;;;;;;;;4896494;29;20060;-79
2022/10/31 02:18:28;;;;;;;8.13;4.05;;;;;;;;;;4866714;29;20214;-80
2022/10/31 02:21:15;;;;;;;11.52;4.40;;;;;;;;;;4878379;29;20041;-80
2022/10/31 02:24:10;;;;;;;7.22;3.88;;;;;;;;;;4885496;29;20523;-80
2022/10/31 02:26:54;;;;;;;13.43;4.63;;;;;;;;;;4848134;29;20144;-80
2022/10/31 02:29:42;;;;;;;13.95;4.38;;;;;;;;;;4863775;29;20052;-81
2022/10/31 02:32:14;;;;;;;6.18;3.83;;;;;;;;;;4880639;29;20052;-80
2022/10/31 02:34:41;;;;;;;;;;;;;;;;;;4890075;29;21037;-80
2022/10/31 02:37:12;;;;;;;13.15;4.40;;;;;;;;;;4895976;29;20340;-81
2022/10/31 02:39:45;;;;;;;5.95;4.43;;;;;;;;;;4881816;29;20053;-80
2022/10/31 02:42:19;;;;;;;14.05;4.78;;;;;;;;;;4877536;29;20049;-80
2022/10/31 02:44:53;;;;;;;4.93;4.18;;;;;;;;;;4878421;29;20116;-80
2022/10/31 02:47:28;;;;;;;13.05;4.53;;;;;;;;;;4887740;29;20052;-80
2022/10/31 02:50:01;;;;;;;6.93;4.75;;;;;;;;;;4884349;29;20108;-81
2022/10/31 02:52:29;;;;;;;10.45;4.82;;;;;;;;;;4880694;29;20053;-78
2022/10/31 02:55:13;;;;;;;11.55;4.97;;;;;;;;;;4873840;29;20513;-80
2022/10/31 02:57:41;;;;;;;11.10;5.13;;;;;;;;;;4893392;29;20107;-80
2022/10/31 03:00:09;;;;;;;7.18;5.03;;;;;;;;;;4885632;29;20097;-80
2022/10/31 03:02:37;;;;;;;6.45;5.20;;;;;;;;;;4889408;29;20042;-80
2022/10/31 03:05:05;;;;;;;10.07;5.30;;;;;;;;;;4864368;29;20052;-81
2022/10/31 03:07:33;;;;;;;12.80;5.70;;;;;;;;;;4882556;29;20067;-80
2022/10/31 03:10:03;;;;;;;11.65;5.10;;;;;;;;;;4880542;29;20048;-79
2022/10/31 03:12:44;;;;;;;10.48;4.88;;;;;;;;;;4860701;29;20077;-79
2022/10/31 03:15:31;;;;;;;8.55;5.07;;;;;;;;;;4866133;29;20142;-80
2022/10/31 03:17:59;;;;;;;9.30;4.90;;;;;;;;;;4857938;29;20049;-80
2022/10/31 03:20:48;;;;;;;11.10;5.35;;;;;;;;;;4878681;29;20124;-79
2022/10/31 03:23:17;;;;;;;7.50;5.38;;;;;;;;;;4850531;29;20074;-79
2022/10/31 03:25:49;;;;;;;6.88;4.90;;;;;;;;;;4864657;29;20065;-80
2022/10/31 03:28:19;;;;;;;8.35;5.20;;;;;;;;;;4895330;29;20132;-79
2022/10/31 03:30:47;;;;;;;10.68;5.30;;;;;;;;;;4865731;29;20079;-78
2022/10/31 03:33:17;;;;;;;8.40;5.10;;;;;;;;;;4890399;29;20086;-78
2022/10/31 03:35:47;;;;;;;9.73;5.37;;;;;;;;;;4890320;29;20049;-80
2022/10/31 03:38:15;;;;;;;9.63;4.55;;;;;;;;;;4877411;29;20048;-79
2022/10/31 03:40:44;;;;;;;10.60;4.43;;;;;;;;;;4874463;29;20049;-79
2022/10/31 03:43:14;;;;;;;6.13;4.13;;;;;;;;;;4863107;29;20082;-79
2022/10/31 03:45:44;;;;;;;7.82;4.95;;;;;;;;;;4855609;29;20397;-79
2022/10/31 03:48:13;;;;;;;7.13;4.90;;;;;;;;;;4895030;29;20417;-79
2022/10/31 03:50:46;;;;;;;8.60;4.28;;;;;;;;;;4877169;29;20061;-80
2022/10/31 03:53:16;;;;;;;4.95;4.50;;;;;;;;;;4876827;29;20048;-79
2022/10/31 03:55:46;;;;;;;12.13;4.25;;;;;;;;;;4877340;29;20544;-80
2022/10/31 03:58:19;;;;;;;14.57;4.20;;;;;;;;;;4877756;29;20051;-79
2022/10/31 04:00:47;;;;;;;12.07;3.95;;;;;;;;;;4871159;29;20777;-79
2022/10/31 04:03:27;;;;;;;8.00;4.05;;;;;;;;;;4880126;29;20157;-79
2022/10/31 04:05:58;;;;;;;13.90;4.03;;;;;;;;;;4878548;29;20049;-79
2022/10/31 04:08:28;;;;;;;7.07;4.25;;;;;;;;;;4881132;29;20059;-79
2022/10/31 04:10:58;;;;;;;7.68;3.80;;;;;;;;;;4874280;29;20047;-79
2022/10/31 04:13:30;;;;;;;10.30;4.30;;;;;;;;;;4863587;29;20037;-79
2022/10/31 04:16:09;;;;;;;10.68;4.00;;;;;;;;;;4861714;29;20099;-79
2022/10/31 04:18:43;;;;;;;13.57;4.43;;;;;;;;;;4887856;29;20755;-79
2022/10/31 04:21:10;;;;;;;6.72;4.15;;;;;;;;;;4876594;29;20037;-80
2022/10/31 04:23:37;;;;;;;10.80;4.28;;;;;;;;;;4877342;29;20544;-79
2022/10/31 04:26:15;;;;;;;4.80;3.78;;;;;;;;;;4878474;29;20043;-79
2022/10/31 04:28:43;;;;;;;10.77;4.43;;;;;;;;;;4887501;29;20041;-80
2022/10/31 04:31:13;;;;;;;8.25;4.32;;;;;;;;;;4874030;29;20049;-79
2022/10/31 04:33:42;;;;;;;5.57;3.92;;;;;;;;;;4862021;29;20049;-79
2022/10/31 04:36:09;;;;;;;14.23;4.28;;;;;;;;;;4863739;29;20053;-79
2022/10/31 04:38:37;;;;;;;11.85;4.35;;;;;;;;;;4865102;29;20052;-79
2022/10/31 04:41:12;;;;;;;13.25;4.03;;;;;;;;;;4879273;29;20136;-79
2022/10/31 04:44:01;;;;;;;11.23;3.83;;;;;;;;;;4880108;29;20044;-79
2022/10/31 04:46:28;;;;;;;5.43;3.92;;;;;;;;;;4879474;29;20063;-80
2022/10/31 04:48:57;;;;;;;15.23;4.25;;;;;;;;;;4896443;29;20494;-80
2022/10/31 04:51:25;;;;;;;12.95;3.72;;;;;;;;;;4897760;29;20053;-80
2022/10/31 04:56:55;;;;;;;38.83;4.90;;;;;;;;;;4911382;23;20049;-79
2022/10/31 04:59:23;;;;;;;13.63;4.00;;;;;;;;;;4884921;29;20442;-79
2022/10/31 05:01:54;;;;;;;20.13;3.92;;;;;;;;;;4878428;29;20048;-79
2022/10/31 05:04:31;;;;;;;8.00;3.70;;;;;;;;;;4876629;29;20037;-80
2022/10/31 05:06:58;;;;;;;16.55;3.85;;;;;;;;;;4867550;29;20124;-79
2022/10/31 05:09:26;;;;;;;7.90;3.20;;;;;;;;;;4875276;29;20056;-77
2022/10/31 05:11:53;;;;;;;8.02;3.53;;;;;;;;;;4860757;29;20441;-76
2022/10/31 05:14:47;;;;;;;13.95;3.45;;;;;;;;;;4846347;29;20053;-77
2022/10/31 05:17:47;;;;;;;12.82;3.75;;;;;;;;;;4852868;29;20049;-77
2022/10/31 05:20:44;;;;;;;5.60;3.30;;;;;;;;;;4807774;29;20046;-76
2022/10/31 05:23:24;;;;;;;7.78;3.20;;;;;;;;;;4858346;29;20052;-77
2022/10/31 05:25:52;;;;;;;13.07;3.55;;;;;;;;;;4857657;29;20037;-77
2022/10/31 05:28:19;;;;;;;16.63;3.50;;;;;;;;;;4859702;29;20092;-76
2022/10/31 05:30:46;;;;;;;10.48;3.70;;;;;;;;;;4875529;29;20494;-76
2022/10/31 05:33:15;;;;;;;7.05;3.60;;;;;;;;;;4843196;29;20593;-77
2022/10/31 05:36:01;;;;;;;21.90;3.70;;;;;;;;;;4877054;29;20049;-77
2022/10/31 05:38:34;;;;;;;4.32;3.40;;;;;;;;;;4875977;29;20444;-77
2022/10/31 05:41:10;;;;;;;10.65;3.30;;;;;;;;;;4859087;29;20128;-77
2022/10/31 05:43:41;;;;;;;8.02;3.65;;;;;;;;;;4863427;29;20041;-77
2022/10/31 05:46:09;;;;;;;10.68;3.92;;;;;;;;;;4863046;29;20072;-77
2022/10/31 05:48:55;;;;;;;10.10;3.65;;;;;;;;;;4867345;29;20082;-77
2022/10/31 05:51:29;;;;;;;14.60;3.88;;;;;;;;;;4871658;29;20112;-76
2022/10/31 05:53:56;;;;;;;9.32;3.78;;;;;;;;;;4857551;29;20069;-77
2022/10/31 05:56:25;;;;;;;9.52;3.67;;;;;;;;;;4856550;29;20056;-77
2022/10/31 05:58:52;;;;;;;13.15;3.67;;;;;;;;;;4874331;29;20041;-77
2022/10/31 06:01:19;;;;;;;8.80;4.20;;;;;;;;;;4873737;29;20041;-77
2022/10/31 06:03:47;;;;;;;11.98;4.22;;;;;;;;;;4851965;29;20048;-77
2022/10/31 06:06:16;;;;;;;9.57;3.95;;;;;;;;;;4853617;29;20037;-76
2022/10/31 06:08:45;;;;;;;5.72;3.70;;;;;;;;;;4857429;29;20056;-77
2022/10/31 06:11:15;;;;;;;7.13;3.60;;;;;;;;;;4871930;29;20063;-77
2022/10/31 06:14:06;;;;;;;15.98;4.00;;;;;;;;;;4841375;29;20139;-77
2022/10/31 06:16:54;;;;;;;10.15;3.60;;;;;;;;;;4870336;23;20059;-73
2022/10/31 06:19:54;;;;;;;9.25;3.67;;;;;;;;;;4845881;29;20096;-73
2022/10/31 06:22:24;;;;;;;6.50;3.88;;;;;;;;;;4911803;29;20303;-73
2022/10/31 06:24:52;;;;;;;6.05;3.72;;;;;;;;;;4880891;29;20116;-73
2022/10/31 06:27:32;;;;;;;12.13;3.65;;;;;;;;;;4859797;29;20061;-73
2022/10/31 06:30:06;;;;;;;4.25;3.70;;;;;;;;;;4895200;24;20052;-76
2022/10/31 06:32:35;;;;;;;10.30;4.13;;;;;;;;;;4872385;29;20067;-76
2022/10/31 06:35:03;;;;;;;8.77;3.70;;;;;;;;;;4861786;29;20705;-76
2022/10/31 06:37:31;;;;;;;11.00;3.53;;;;;;;;;;4858425;29;20548;-79
2022/10/31 06:40:05;;;;;;;10.10;3.25;;;;;;;;;;4844962;29;20378;-79
2022/10/31 06:42:48;;;;;;;6.55;3.38;;;;;;;;;;4842987;29;20056;-79
2022/10/31 06:45:15;;;;;;;4.43;3.25;;;;;;;;;;4852630;29;20534;-79
2022/10/31 06:48:09;;;;;;;8.68;3.70;;;;;;;;;;4841848;29;20059;-78
2022/10/31 06:51:02;;;;;;;8.50;3.60;;;;;;;;;;4837375;29;20060;-78
2022/10/31 06:53:30;;;;;;;11.05;3.80;;;;;;;;;;4850075;29;20720;-79
2022/10/31 06:55:57;;;;;;;6.95;3.70;;;;;;;;;;4856465;29;20075;-79
2022/10/31 06:58:26;;;;;;;19.63;4.57;;;;;;;;;;4838635;29;20082;-79
2022/10/31 07:01:01;;;;;;;6.30;3.28;;;;;;;;;;4844191;29;20049;-77
2022/10/31 07:03:28;;;;;;;5.55;3.65;;;;;;;;;;4856336;29;20375;-79
2022/10/31 07:05:57;;;;;;;7.20;3.20;;;;;;;;;;4856589;29;20037;-78
2022/10/31 07:08:25;;;;;;;5.65;3.50;;;;;;;;;;4857416;29;20410;-79
2022/10/31 07:10:53;;;;;;;5.88;4.00;;;;;;;;;;4847558;29;20056;-79
2022/10/31 07:13:25;;;;;;;7.05;4.53;;;;;;;;;;4841159;29;20049;-78
2022/10/31 07:16:01;;;;;;;6.85;3.70;;;;;;;;;;4850072;29;20060;-78
2022/10/31 07:18:29;;;;;;;12.32;3.75;;;;;;;;;;4852232;29;20466;-79
2022/10/31 07:20:56;;;;;;;8.50;4.13;;;;;;;;;;4841921;29;20507;-78
2022/10/31 07:23:23;;;;;;;15.98;4.38;;;;;;;;;;4869328;29;20038;-78
2022/10/31 07:26:14;;;;;;;10.82;4.03;;;;;;;;;;4875785;29;20441;-79
2022/10/31 07:28:47;;;;;;;4.23;3.77;;;;;;;;;;4840497;29;20071;-79
2022/10/31 07:31:17;;;;;;;7.53;3.97;;;;;;;;;;4881367;29;20320;-79
2022/10/31 07:33:44;;;;;;;4.85;3.80;;;;;;;;;;4880299;29;20049;-79
2022/10/31 07:36:27;;;;;;;6.93;3.55;;;;;;;;;;4868762;29;20053;-79
2022/10/31 07:38:59;;;;;;;5.22;3.85;;;;;;;;;;4849094;29;20067;-79
2022/10/31 07:41:26;;;;;;;6.95;3.88;;;;;;;;;;4864818;29;20506;-79
2022/10/31 07:43:54;;;;;;;11.20;4.03;;;;;;;;;;4876908;29;20041;-79
2022/10/31 07:46:40;;;;;;;8.88;3.42;;;;;;;;;;4863178;29;20049;-79
2022/10/31 07:49:26;;;;;;;7.63;3.85;;;;;;;;;;4859894;29;20113;-77
2022/10/31 07:52:12;;;;;;;6.30;3.70;;;;;;;;;;4873160;29;20044;-77
2022/10/31 07:55:03;;;;;;;4.15;3.65;;;;;;;;;;4851413;29;20135;-77
2022/10/31 07:57:30;;;;;;;4.57;4.18;;;;;;;;;;4876847;29;20761;-77
2022/10/31 08:00:01;;;;;;;5.72;3.50;;;;;;;;;;4859974;29;20055;-76
2022/10/31 08:02:29;;;;;;;6.78;3.22;;;;;;;;;;4859905;29;20060;-77
2022/10/31 08:05:32;;;;;;;4.93;3.60;;;;;;;;;;4878201;29;20153;-77
2022/10/31 08:08:18;;;;;;;3.70;3.40;;;;;;;;;;4879333;29;20033;-77
2022/10/31 08:10:47;;;;;;;5.00;3.72;;;;;;;;;;4852888;29;20045;-76
2022/10/31 08:13:15;;;;;;;7.70;5.93;;;;;;;;;;4831363;29;20446;-79
2022/10/31 08:15:49;;;;;;;3.83;3.53;;;;;;;;;;4843001;29;20049;-79
2022/10/31 08:18:21;;;;;;;6.97;4.10;;;;;;;;;;4860145;29;20057;-79
2022/10/31 08:20:49;;;;;;;8.43;4.18;;;;;;;;;;4859579;29;20593;-78
2022/10/31 08:23:17;;;;;;;9.65;4.68;;;;;;;;;;4860659;29;20064;-78
2022/10/31 08:25:46;;;;;;;9.95;4.00;;;;;;;;;;4860317;29;20089;-80
2022/10/31 08:28:14;;;;;;;5.03;4.25;;;;;;;;;;4877039;29;20056;-79
2022/10/31 08:30:45;;;;;;;4.63;4.22;;;;;;;;;;4845321;29;20057;-79
2022/10/31 08:33:31;;;;;;;5.15;4.10;;;;;;;;;;4859281;29;20037;-79
2022/10/31 08:36:16;;;;;;;5.82;3.90;;;;;;;;;;4879323;29;20041;-79
2022/10/31 08:39:03;;;;;;;8.07;4.55;;;;;;;;;;4880881;29;20117;-79
2022/10/31 08:41:30;;;;;;;4.03;3.72;;;;;;;;;;4860843;29;20113;-78
2022/10/31 08:44:00;;;;;;;7.10;4.43;;;;;;;;;;4859752;29;20513;-78
2022/10/31 08:46:27;;;;;;;5.18;4.10;;;;;;;;;;4858494;29;20033;-79
2022/10/31 08:48:55;;;;;;;4.78;4.10;;;;;;;;;;4858813;29;20087;-80
2022/10/31 08:51:23;;;;;;;6.72;3.85;;;;;;;;;;4859292;29;20558;-79
2022/10/31 08:53:53;;;;;;;5.30;4.10;;;;;;;;;;4858628;29;20120;-79
2022/10/31 08:56:22;;;;;;;3.95;3.65;;;;;;;;;;4876173;29;20045;-79
2022/10/31 08:58:51;;;;;;;5.38;4.43;;;;;;;;;;4863831;29;20120;-79
2022/10/31 09:01:23;;;;;;;6.47;4.28;;;;;;;;;;4860354;29;20052;-79
2022/10/31 09:03:51;;;;;;;4.93;4.30;;;;;;;;;;4860016;29;20089;-79
2022/10/31 09:06:18;;;;;;;4.43;4.00;;;;;;;;;;4859360;29;20144;-77
2022/10/31 09:08:47;;;;;;;4.50;3.88;;;;;;;;;;4860311;29;20045;-76
2022/10/31 09:11:16;;;;;;;7.10;4.40;;;;;;;;;;4860088;29;20169;-79
2022/10/31 09:14:06;;;;;;;4.25;3.90;;;;;;;;;;4871110;29;20068;-79
2022/10/31 09:16:36;;;;;;;6.40;3.55;;;;;;;;;;4875904;29;20584;-80
2022/10/31 09:19:06;;;;;;;4.53;3.65;;;;;;;;;;4865890;29;20045;-79
2022/10/31 09:21:37;;;;;;;5.03;4.20;;;;;;;;;;4859993;29;20076;-80
2022/10/31 09:24:05;;;;;;;7.82;3.88;;;;;;;;;;4859905;29;20059;-79
2022/10/31 09:26:33;;;;;;;4.40;3.97;;;;;;;;;;4844502;29;20085;-79
2022/10/31 09:29:26;;;;;;;3.90;3.60;;;;;;;;;;4841035;29;20141;-79
2022/10/31 09:31:57;;;;;;;4.53;4.00;;;;;;;;;;4862076;29;20049;-79
2022/10/31 09:34:27;;;;;;;4.30;3.90;;;;;;;;;;4845583;29;20064;-82
2022/10/31 09:37:04;;;;;;;6.15;4.25;;;;;;;;;;4844116;29;20563;-79
2022/10/31 09:39:34;;;;;;;5.72;5.05;;;;;;;;;;4860373;29;20049;-79
2022/10/31 09:42:24;;;;;;;5.03;4.63;;;;;;;;;;4859634;29;20413;-80
2022/10/31 09:45:13;;;;;;;9.07;5.05;;;;;;;;;;4859383;29;20252;-79
2022/10/31 09:47:52;;;;;;;4.85;4.45;;;;;;;;;;4856861;29;20391;-79
2022/10/31 09:50:47;;;;;;;4.40;4.00;;;;;;;;;;4864963;29;20272;-79
2022/10/31 09:53:44;;;;;;;4.50;3.83;;;;;;;;;;4874891;29;20149;-79
2022/10/31 09:56:18;;;;;;;4.68;4.28;;;;;;;;;;4857614;29;20161;-79
2022/10/31 09:58:48;;;;;;;;;;;;;;;;;;4863680;29;20060;-81
2022/10/31 10:01:33;;;;;;;12.73;11.38;;;;;;;;;;4892363;29;20030;-82
2022/10/31 10:04:05;;;;;;;7.72;6.53;;;;;;;;;;4870371;29;20401;-82
2022/10/31 10:06:55;;;;;;;6.82;6.07;;;;;;;;;;4857359;29;20041;-81
2022/10/31 10:09:49;;;;;;;6.75;5.70;;;;;;;;;;4848169;29;20061;-79
2022/10/31 10:12:38;;;;;;;6.35;5.60;;;;;;;;;;4873470;29;20056;-82
2022/10/31 10:15:21;;;;;;;9.57;6.50;;;;;;;;;;4853388;29;20151;-84
2022/10/31 10:18:07;;;;;;;6.20;5.50;;;;;;;;;;4865248;29;20056;-82
2022/10/31 10:20:50;;;;;;;7.20;5.35;;;;;;;;;;4849442;29;20076;-84
2022/10/31 10:23:30;;;;;;;8.15;5.90;;;;;;;;;;4861890;29;20053;-81
2022/10/31 10:26:13;;;;;;;7.47;5.82;;;;;;;;;;4880594;29;20121;-85
2022/10/31 10:28:44;;;;;;;7.13;5.45;;;;;;;;;;4831731;29;20470;-87
2022/10/31 10:31:15;;;;;;;6.10;5.50;;;;;;;;;;4826123;29;20068;-82
2022/10/31 10:33:48;;;;;;;8.05;5.75;;;;;;;;;;4860237;29;20057;-83
2022/10/31 10:36:18;;;;;;;7.60;6.10;;;;;;;;;;4881863;29;20431;-81
2022/10/31 10:38:52;;;;;;;8.35;6.78;;;;;;;;;;4860875;29;20455;-79
2022/10/31 10:41:24;;;;;;;8.65;6.10;;;;;;;;;;4842528;29;20153;-78
2022/10/31 10:43:59;;;;;;;7.75;5.80;;;;;;;;;;4845299;29;20047;-79
2022/10/31 10:49:50;;;;;;;7.95;6.40;;;;;;;;;;4831403;29;20045;-79
2022/10/31 10:52:20;;;;;;;7.93;5.97;;;;;;;;;;4881671;29;20045;-80
2022/10/31 10:55:17;;;;;;;7.95;6.22;;;;;;;;;;4875628;29;20048;-78
2022/10/31 10:57:53;;;;;;;10.27;7.30;;;;;;;;;;4867066;29;20057;-81
2022/10/31 11:00:31;;;;;;;8.30;6.20;;;;;;;;;;4871718;29;20045;-79
2022/10/31 11:02:59;;;;;;;7.80;6.65;;;;;;;;;;4866048;29;20503;-79
2022/10/31 11:05:45;;;;;;;9.77;6.82;;;;;;;;;;4869559;29;20037;-81
2022/10/31 11:08:23;;;;;;;9.93;6.78;;;;;;;;;;4862191;29;20041;-79
2022/10/31 11:11:02;;;;;;;14.37;7.83;;;;;;;;;;4872284;29;20294;-78
2022/10/31 11:13:30;;;;;;;13.15;7.35;;;;;;;;;;4858410;29;20044;-79
2022/10/31 11:16:00;;;;;;;14.50;8.27;;;;;;;;;;4874690;29;20386;-79
2022/10/31 11:18:30;;;;;;;9.93;7.47;;;;;;;;;;4873193;29;20075;-79
2022/10/31 11:20:59;;;;;;;10.20;7.43;;;;;;;;;;4928216;23;20067;-74
2022/10/31 11:23:28;;;;;;;9.15;7.60;;;;;;;;;;4879211;29;20048;-75
2022/10/31 11:25:55;;;;;;;8.13;6.88;;;;;;;;;;4877341;29;20542;-74
2022/10/31 11:28:23;;;;;;;9.63;7.72;;;;;;;;;;4889241;29;20115;-74
2022/10/31 11:31:01;;;;;;;9.55;6.78;;;;;;;;;;4888533;29;20048;-75
2022/10/31 11:33:32;;;;;;;9.52;8.07;;;;;;;;;;4892006;29;20855;-74
2022/10/31 11:36:01;;;;;;;12.75;8.27;;;;;;;;;;4880197;29;20596;-74
2022/10/31 11:38:35;;;;;;;10.43;8.23;;;;;;;;;;4871966;29;20458;-74
2022/10/31 11:41:15;;;;;;;13.75;9.35;;;;;;;;;;4876757;29;20044;-75
2022/10/31 11:43:47;;;;;;;12.88;9.93;;;;;;;;;;4889055;29;20389;-75
2022/10/31 11:46:18;;;;;;;14.70;10.70;;;;;;;;;;4882359;29;20064;-75
2022/10/31 11:48:53;;;;;;;13.60;11.07;;;;;;;;;;4892801;29;20093;-74
2022/10/31 11:51:22;;;;;;;16.92;10.55;;;;;;;;;;4870116;29;20043;-74
2022/10/31 11:53:52;;;;;;;13.93;9.43;;;;;;;;;;4891410;29;20056;-74
2022/10/31 11:56:26;;;;;;;19.65;10.07;;;;;;;;;;4887261;29;20133;-75
2022/10/31 11:59:15;;;;;;;16.08;9.55;;;;;;;;;;4887761;29;20048;-75
2022/10/31 12:01:47;;;;;;;11.32;8.32;;;;;;;;;;4876842;29;20059;-75
2022/10/31 12:04:16;;;;;;;12.98;8.68;;;;;;;;;;4891230;29;20489;-74
2022/10/31 12:06:48;;;;;;;11.38;8.23;;;;;;;;;;4891781;29;20044;-74
2022/10/31 12:09:15;;;;;;;;;;;;;;;;;;4879911;29;20044;-74
2022/10/31 12:11:53;;;;;;;10.35;8.75;;;;;;;;;;4875668;29;20380;-76
2022/10/31 12:14:30;;;;;;;9.40;7.70;;;;;;;;;;4867845;29;20062;-74
2022/10/31 12:17:01;;;;;;;16.50;8.50;;;;;;;;;;4880757;29;20087;-75
2022/10/31 12:19:29;;;;;;;11.32;8.20;;;;;;;;;;4896275;29;20048;-75
2022/10/31 12:22:14;;;;;;;10.82;8.10;;;;;;;;;;4873309;29;20103;-75
2022/10/31 12:24:45;;;;;;;9.02;7.45;;;;;;;;;;4873469;29;20049;-74
2022/10/31 12:27:12;;;;;;;9.25;8.05;;;;;;;;;;4879738;29;20413;-75
2022/10/31 12:29:58;;;;;;;12.00;7.57;;;;;;;;;;4875295;29;20044;-74
2022/10/31 12:32:32;;;;;;;11.32;7.95;;;;;;;;;;4892294;29;20049;-74
2022/10/31 12:35:18;;;;;;;10.20;7.68;;;;;;;;;;4891066;29;20108;-74
2022/10/31 12:37:55;;;;;;;10.23;7.80;;;;;;;;;;4890206;29;20386;-74
2022/10/31 12:40:34;;;;;;;17.50;15.65;;;;;;;;;;4889924;29;20052;-74
2022/10/31 12:43:29;;;;;;;10.57;8.55;;;;;;;;;;4896016;29;20131;-75
2022/10/31 12:46:00;;;;;;;9.27;7.93;;;;;;;;;;4898244;29;20052;-76
2022/10/31 12:48:42;;;;;;;11.80;7.25;;;;;;;;;;4896877;29;20087;-73
2022/10/31 12:51:17;;;;;;;12.45;7.32;;;;;;;;;;4896848;29;20072;-74
2022/10/31 12:53:44;;;;;;;7.57;5.93;;;;;;;;;;4896884;29;20049;-76
2022/10/31 12:56:28;;;;;;;10.27;6.05;;;;;;;;;;4864516;29;20056;-75
2022/10/31 12:59:04;;;;;;;8.40;5.65;;;;;;;;;;4891835;29;20137;-75
2022/10/31 13:01:35;;;;;;;5.95;5.30;;;;;;;;;;4877550;29;20376;-74
2022/10/31 13:04:02;;;;;;;11.55;5.97;;;;;;;;;;4859893;29;20044;-75
2022/10/31 13:06:33;;;;;;;6.72;4.88;;;;;;;;;;4895110;29;20096;-74
2022/10/31 13:09:02;;;;;;;8.07;5.40;;;;;;;;;;4878854;29;20076;-74
2022/10/31 13:11:35;;;;;;;10.50;5.70;;;;;;;;;;4895305;29;20045;-74
2022/10/31 13:14:09;;;;;;;8.43;4.88;;;;;;;;;;4894506;29;20056;-74
2022/10/31 13:16:47;;;;;;;9.05;4.95;;;;;;;;;;4891909;29;20156;-74
2022/10/31 13:19:33;;;;;;;6.93;4.93;;;;;;;;;;4860591;29;20041;-74
2022/10/31 13:22:07;;;;;;;6.50;5.50;;;;;;;;;;4860074;29;20049;-74
2022/10/31 13:24:40;;;;;;;6.72;4.78;;;;;;;;;;4876796;29;20435;-74
2022/10/31 13:27:14;;;;;;;10.40;5.43;;;;;;;;;;4876650;29;20121;-74
2022/10/31 13:29:51;;;;;;;5.57;4.95;;;;;;;;;;4878033;29;20766;-75
2022/10/31 13:32:19;;;;;;;8.27;5.40;;;;;;;;;;4884982;29;20494;-72
2022/10/31 13:34:49;;;;;;;7.97;5.25;;;;;;;;;;4895017;29;20036;-75
2022/10/31 13:37:21;;;;;;;6.15;5.55;;;;;;;;;;4894776;29;20044;-74
2022/10/31 13:40:03;;;;;;;8.68;5.70;;;;;;;;;;4895044;29;20512;-75
2022/10/31 13:42:37;;;;;;;5.75;5.03;;;;;;;;;;4889654;29;20700;-74
2022/10/31 13:45:12;;;;;;;6.80;5.45;;;;;;;;;;4892961;29;20124;-74
2022/10/31 13:47:42;;;;;;;8.02;6.18;;;;;;;;;;4892987;29;20052;-75
2022/10/31 13:50:18;;;;;;;7.80;6.15;;;;;;;;;;4876146;29;20052;-74
2022/10/31 13:52:46;;;;;;;10.90;6.47;;;;;;;;;;4893880;29;20059;-74
2022/10/31 13:55:35;;;;;;;8.75;7.85;;;;;;;;;;4894873;29;20064;-74
2022/10/31 13:58:20;;;;;;;15.05;8.18;;;;;;;;;;4892885;29;20049;-75
2022/10/31 14:00:58;;;;;;;10.68;7.38;;;;;;;;;;4872743;29;20124;-74
2022/10/31 14:03:28;;;;;;;10.07;7.40;;;;;;;;;;4894393;29;20051;-74
2022/10/31 14:06:16;;;;;;;8.07;7.25;;;;;;;;;;4894799;29;20093;-74
2022/10/31 14:08:49;;;;;;;9.82;6.70;;;;;;;;;;4894574;29;20523;-75
2022/10/31 14:11:27;;;;;;;8.70;7.90;;;;;;;;;;4875755;29;20576;-74
2022/10/31 14:14:02;;;;;;;7.75;6.95;;;;;;;;;;4891791;29;20056;-74
2022/10/31 14:16:31;;;;;;;9.70;7.50;;;;;;;;;;4894887;29;20047;-74
2022/10/31 14:19:09;;;;;;;8.93;6.78;;;;;;;;;;4894320;29;20059;-75
2022/10/31 14:21:41;;;;;;;8.27;7.47;;;;;;;;;;4894467;29;20060;-75
2022/10/31 14:24:24;;;;;;;7.82;7.00;;;;;;;;;;4894228;29;20048;-74
2022/10/31 14:26:58;;;;;;;10.13;6.88;;;;;;;;;;4894408;29;20047;-75
2022/10/31 14:29:27;;;;;;;8.38;7.57;;;;;;;;;;4892920;29;20540;-75
2022/10/31 14:32:15;;;;;;;10.68;7.90;;;;;;;;;;4887996;29;20125;-75
2022/10/31 14:34:45;;;;;;;8.93;8.00;;;;;;;;;;4885222;29;20055;-75
2022/10/31 14:37:21;;;;;;;12.75;9.15;;;;;;;;;;4876611;29;20066;-75
2022/10/31 14:39:55;;;;;;;11.75;8.48;;;;;;;;;;4889251;29;20048;-75
2022/10/31 14:42:25;;;;;;;11.60;8.38;;;;;;;;;;4877912;29;20078;-75
2022/10/31 14:45:03;;;;;;;9.65;7.90;;;;;;;;;;4893048;29;20690;-75
2022/10/31 14:47:33;;;;;;;8.57;7.70;;;;;;;;;;4893570;29;20049;-75
2022/10/31 14:50:00;;;;;;;8.80;7.90;;;;;;;;;;4881554;29;20052;-75
2022/10/31 14:52:28;;;;;;;10.27;8.40;;;;;;;;;;4858371;29;20053;-74
2022/10/31 14:54:58;;;;;;;12.68;9.30;;;;;;;;;;4875532;29;20447;-74
2022/10/31 14:57:30;;;;;;;10.85;8.43;;;;;;;;;;4861304;29;20064;-74
2022/10/31 15:00:01;;;;;;;9.60;8.50;;;;;;;;;;4875644;29;20060;-74
2022/10/31 15:02:36;;;;;;;12.20;9.35;;;;;;;;;;4891147;29;20048;-74
2022/10/31 15:05:11;;;;;;;12.70;9.25;;;;;;;;;;4861463;29;20052;-75
2022/10/31 15:07:48;;;;;;;12.23;10.63;;;;;;;;;;4869007;29;20075;-75
2022/10/31 15:10:26;;;;;;;14.25;11.00;;;;;;;;;;4887984;29;20097;-76
2022/10/31 15:12:53;;;;;;;15.50;11.68;;;;;;;;;;4869508;29;20064;-75
2022/10/31 15:15:22;;;;;;;15.40;12.25;;;;;;;;;;4890527;29;20357;-75
2022/10/31 15:17:53;;;;;;;15.63;12.30;;;;;;;;;;4888302;29;20049;-75
2022/10/31 15:20:21;;;;;;;14.80;12.07;;;;;;;;;;4891999;29;20045;-75
2022/10/31 15:22:48;;;;;;;12.52;11.20;;;;;;;;;;4890542;29;20109;-74